KPUB/PUB METAR and TAF weather

Enter ICAO airport designator
Station Type Date Time Source
KPUB METAR 2022/12/04 11:53 UTC NOAA

KPUB 041153Z AUTO 34007KT 10SM CLR 00/M08 A3016 RMK AO2 SLP224 T00001078 10011 21044 58004


Station Type Date Time Source
KPUB Decoded METAR 2022/12/04 11:53 UTC NOAA

PUEBLO MEMORIAL AIRPORT, CO, United States (KPUB) 38-17N 104-30W 1420M
Dec 04, 2022 - 06:53 AM EST / 2022.12.04 1153 UTC
Wind: from the NNW (340 degrees) at 8 MPH (7 KT):0
Visibility: 10 mile(s):0
Sky conditions: clear
Temperature: 32.0 F (0.0 C)
Windchill: 24 F (-4 C):1
Dew Point: 18.0 F (-7.8 C)
Relative Humidity: 55%
Pressure (altimeter): 30.16 in. Hg (1021 hPa)
Pressure tendency: 0.01 inches (0.4 hPa) lower than three hours ago
ob: KPUB 041153Z AUTO 34007KT 10SM CLR 00/M08 A3016 RMK AO2 SLP224 T00001078 10011 21044 58004
cycle: 12

Station Type Date Time Source
KPUB TAF 2022/12/04 12:39 UTC NOAA

TAF KPUB 041137Z 0412/0512 30007KT P6SM FEW150 BKN200
FM041700 12012KT P6SM BKN250
FM050200 29005KT P6SM SCT250

Example: see airport list